Time;durP1;ratioP1;P1;durP2;ratioP2;P2;SDS_P1;SDS_P2;PMS_P1;PMS_P2;Temp;Humidity;BMP_temperature;BMP_pressure;BME280_temperature;BME280_humidity;BME280_pressure;Samples;Min_cycle;Max_cycle;Signal;HPM_P1;HPM_P2
2023/05/05 04:06:22;;;;;;;2.17;2.08;;;10.10;99.90;;;;;;6208886;22;20196;-76
2023/05/05 04:08:48;;;;;;;1.95;1.90;;;10.10;99.90;;;;;;6216665;23;20193;-76
2023/05/05 04:11:15;;;;;;;2.10;2.00;;;10.10;99.90;;;;;;6216827;23;20177;-73
2023/05/05 04:13:42;;;;;;;2.15;2.10;;;10.10;99.90;;;;;;6216774;23;20196;-72
2023/05/05 04:16:08;;;;;;;2.88;2.78;;;10.10;99.90;;;;;;6216769;23;20193;-71
2023/05/05 04:18:36;;;;;;;2.55;2.45;;;10.10;99.90;;;;;;6216704;23;20234;-75
2023/05/05 04:21:02;;;;;;;2.97;2.78;;;10.10;99.90;;;;;;6217188;23;20183;-76
2023/05/05 04:23:30;;;;;;;2.78;2.60;;;10.20;99.90;;;;;;6216687;23;20184;-76
2023/05/05 04:25:57;;;;;;;2.63;2.53;;;10.20;99.90;;;;;;6216664;23;20197;-76
2023/05/05 04:28:24;;;;;;;2.92;2.70;;;10.30;99.90;;;;;;6216299;23;20183;-76
2023/05/05 04:30:51;;;;;;;2.58;2.47;;;10.30;99.90;;;;;;6216533;23;20172;-76
2023/05/05 04:33:17;;;;;;;3.30;3.20;;;10.40;99.90;;;;;;6216570;23;20503;-75
2023/05/05 04:35:44;;;;;;;2.55;2.45;;;10.40;99.90;;;;;;6216447;23;20196;-76
2023/05/05 04:38:11;;;;;;;3.05;2.92;;;10.50;99.90;;;;;;6216793;23;20177;-76
2023/05/05 04:40:40;;;;;;;2.97;2.88;;;10.50;99.90;;;;;;6216483;23;20176;-76
2023/05/05 04:43:07;;;;;;;3.20;3.00;;;10.60;99.90;;;;;;6216543;23;20510;-76
2023/05/05 04:45:33;;;;;;;2.97;2.88;;;10.70;99.90;;;;;;6216383;23;20227;-76
2023/05/05 04:48:00;;;;;;;2.80;2.70;;;10.70;99.90;;;;;;6216549;23;20180;-76
2023/05/05 04:50:27;;;;;;;3.30;3.10;;;10.80;99.90;;;;;;6216343;23;20227;-76
2023/05/05 04:52:55;;;;;;;2.72;2.63;;;10.70;99.90;;;;;;6216042;23;20634;-76
2023/05/05 04:55:21;;;;;;;2.65;2.55;;;10.80;99.90;;;;;;6216026;23;20193;-75
2023/05/05 04:57:49;;;;;;;3.22;3.05;;;10.90;99.90;;;;;;6216349;23;20487;-76
2023/05/05 05:00:17;;;;;;;2.67;2.58;;;10.90;99.90;;;;;;6215939;23;20219;-75
2023/05/05 05:02:43;;;;;;;3.03;2.92;;;10.90;99.90;;;;;;6216290;23;20172;-76
2023/05/05 05:05:10;;;;;;;2.90;2.70;;;11.00;99.90;;;;;;6216320;23;20172;-75
2023/05/05 05:07:37;;;;;;;2.85;2.75;;;11.10;99.90;;;;;;6216179;23;20196;-75
2023/05/05 05:10:04;;;;;;;2.65;2.55;;;11.20;99.90;;;;;;6216056;23;20656;-73
2023/05/05 05:12:30;;;;;;;3.33;3.13;;;11.40;99.90;;;;;;6216260;23;20173;-73
2023/05/05 05:14:58;;;;;;;3.05;2.85;;;11.50;99.90;;;;;;6216090;23;20195;-72
2023/05/05 05:17:25;;;;;;;2.88;2.78;;;11.70;99.90;;;;;;6216118;23;20208;-72
2023/05/05 05:19:53;;;;;;;3.03;2.88;;;11.80;99.90;;;;;;6216069;23;20173;-73
2023/05/05 05:22:19;;;;;;;3.70;3.40;;;12.00;99.90;;;;;;6216081;23;20183;-74
2023/05/05 05:24:46;;;;;;;3.50;3.30;;;12.20;99.90;;;;;;6215764;23;20638;-73
2023/05/05 05:27:13;;;;;;;4.00;3.75;;;12.30;99.90;;;;;;6216035;23;20495;-75
2023/05/05 05:29:39;;;;;;;3.80;3.60;;;12.50;99.90;;;;;;6216044;23;20180;-74
2023/05/05 05:32:07;;;;;;;4.03;3.83;;;12.50;99.90;;;;;;6216027;23;20184;-74
2023/05/05 05:34:34;;;;;;;4.30;4.07;;;12.60;99.90;;;;;;6215730;23;20658;-74
2023/05/05 05:37:01;;;;;;;5.55;4.90;;;12.60;99.90;;;;;;6215923;23;20192;-75
2023/05/05 05:39:27;;;;;;;4.60;4.30;;;12.60;99.90;;;;;;6215911;23;20173;-74
2023/05/05 05:41:54;;;;;;;5.13;4.65;;;12.60;99.90;;;;;;6215562;23;20177;-74
2023/05/05 05:44:21;;;;;;;5.22;4.82;;;12.50;99.90;;;;;;6215769;23;20697;-74
2023/05/05 05:46:48;;;;;;;4.60;4.20;;;12.50;99.90;;;;;;6215864;23;20196;-74
2023/05/05 05:49:16;;;;;;;4.22;3.92;;;12.50;99.90;;;;;;6216132;23;20180;-75
2023/05/05 05:51:42;;;;;;;5.07;4.68;;;12.50;99.90;;;;;;6216090;23;20177;-76
2023/05/05 05:54:09;;;;;;;4.80;4.25;;;12.50;99.90;;;;;;6215880;23;20195;-75
2023/05/05 05:56:36;;;;;;;4.43;4.00;;;12.50;99.90;;;;;;6215937;23;20204;-75
2023/05/05 05:59:06;;;;;;;4.78;4.28;;;12.70;99.90;;;;;;6216067;23;20176;-75
2023/05/05 06:01:33;;;;;;;4.45;4.15;;;12.50;99.90;;;;;;6216304;23;20157;-76
2023/05/05 06:04:00;;;;;;;5.80;5.03;;;12.50;99.90;;;;;;6215611;23;20176;-75
2023/05/05 06:06:28;;;;;;;4.65;4.20;;;12.50;99.90;;;;;;6215890;23;20196;-75
2023/05/05 06:08:55;;;;;;;6.05;5.00;;;12.40;99.90;;;;;;6215431;23;20653;-75
2023/05/05 06:11:22;;;;;;;5.05;4.75;;;12.40;99.90;;;;;;6215959;23;20184;-75
2023/05/05 06:13:48;;;;;;;6.60;4.50;;;12.40;99.90;;;;;;6216060;23;20637;-75
2023/05/05 06:16:15;;;;;;;4.20;3.90;;;12.40;99.90;;;;;;6216408;23;20192;-74
2023/05/05 06:18:42;;;;;;;4.20;3.92;;;12.40;99.90;;;;;;6215831;23;20173;-74
2023/05/05 06:21:08;;;;;;;3.60;3.30;;;12.40;99.90;;;;;;6215520;23;20176;-76
2023/05/05 06:23:36;;;;;;;4.45;4.13;;;12.50;99.90;;;;;;6215848;23;20192;-75
2023/05/05 06:26:03;;;;;;;3.90;3.70;;;12.60;99.90;;;;;;6215776;23;20189;-75
2023/05/05 06:28:30;;;;;;;3.72;3.53;;;12.70;99.90;;;;;;6215768;23;20207;-75
2023/05/05 06:30:57;;;;;;;3.78;3.58;;;12.90;99.90;;;;;;6215785;23;20183;-75
2023/05/05 06:33:23;;;;;;;4.28;3.90;;;13.10;99.90;;;;;;6215835;23;20184;-75
2023/05/05 06:35:51;;;;;;;4.47;4.28;;;13.30;99.90;;;;;;6215264;23;20673;-75
2023/05/05 06:38:18;;;;;;;5.55;5.15;;;13.50;99.90;;;;;;6216047;23;20176;-75
2023/05/05 06:40:47;;;;;;;5.95;5.43;;;13.70;99.90;;;;;;6215711;23;20514;-75
2023/05/05 06:43:14;;;;;;;5.05;4.75;;;13.80;99.90;;;;;;6215809;23;20176;-76
2023/05/05 06:45:40;;;;;;;5.82;5.40;;;14.00;99.90;;;;;;6215723;23;20197;-75
2023/05/05 06:48:07;;;;;;;4.75;4.45;;;14.10;99.90;;;;;;6215636;23;20669;-75
2023/05/05 06:50:34;;;;;;;4.82;4.28;;;14.10;99.90;;;;;;6215768;23;20179;-76
2023/05/05 06:53:01;;;;;;;4.82;4.45;;;14.00;99.90;;;;;;6217287;23;20177;-76
2023/05/05 06:55:27;;;;;;;4.57;4.18;;;14.00;99.90;;;;;;6217449;23;20188;-76
2023/05/05 06:57:55;;;;;;;3.50;3.30;;;14.20;99.90;;;;;;6217922;23;20173;-76
2023/05/05 07:00:23;;;;;;;3.83;3.53;;;14.40;99.90;;;;;;6217886;23;20173;-76
2023/05/05 07:02:49;;;;;;;3.80;3.60;;;14.60;99.90;;;;;;6217530;23;20180;-76
2023/05/05 07:05:16;;;;;;;3.05;2.85;;;14.80;99.90;;;;;;6217408;23;20176;-75
2023/05/05 07:07:51;;;;;;;3.45;3.22;;;14.90;99.90;;;;;;6217444;23;20177;-76
2023/05/05 07:10:18;;;;;;;3.00;2.90;;;15.00;99.90;;;;;;6217702;23;20164;-76
2023/05/05 07:12:44;;;;;;;2.83;2.72;;;15.10;99.90;;;;;;6217685;23;20173;-75
2023/05/05 07:15:13;;;;;;;3.17;3.00;;;15.20;99.90;;;;;;6217379;23;20196;-75
2023/05/05 07:17:39;;;;;;;3.00;2.72;;;15.20;99.90;;;;;;6217858;23;20195;-74
2023/05/05 07:20:07;;;;;;;3.30;3.10;;;15.20;99.90;;;;;;6217416;23;20496;-75
2023/05/05 07:22:34;;;;;;;2.60;2.50;;;15.20;99.90;;;;;;6217343;23;20196;-75
2023/05/05 07:25:01;;;;;;;3.10;2.90;;;15.20;99.90;;;;;;6217339;23;20196;-75
2023/05/05 07:27:28;;;;;;;3.20;3.00;;;15.20;99.90;;;;;;6217329;23;20284;-74
2023/05/05 07:29:55;;;;;;;2.83;2.67;;;15.20;99.90;;;;;;6216929;23;20533;-75
2023/05/05 07:32:23;;;;;;;2.40;2.30;;;15.30;99.90;;;;;;6217164;23;20177;-74
2023/05/05 07:34:50;;;;;;;2.70;2.55;;;15.40;99.90;;;;;;6217163;23;20192;-74
2023/05/05 07:37:16;;;;;;;2.33;2.28;;;15.60;99.90;;;;;;6216961;23;20200;-74
2023/05/05 07:39:43;;;;;;;2.45;2.30;;;15.80;99.90;;;;;;6216938;23;20172;-76
2023/05/05 07:42:10;;;;;;;2.33;2.20;;;16.00;99.90;;;;;;6217096;23;20179;-76
2023/05/05 07:44:38;;;;;;;2.00;1.95;;;16.80;99.90;;;;;;6217025;23;20172;-74
2023/05/05 07:47:04;;;;;;;3.10;2.88;;;17.70;99.90;;;;;;6216659;23;20568;-75
2023/05/05 07:49:32;;;;;;;2.58;2.47;;;19.10;99.90;;;;;;6217048;23;20180;-73
2023/05/05 07:51:59;;;;;;;2.08;1.95;;;20.60;99.90;;;;;;6216936;23;20202;-72
2023/05/05 07:54:26;;;;;;;1.75;1.65;;;21.80;99.90;;;;;;6216809;23;20180;-72
2023/05/05 07:56:52;;;;;;;1.50;1.50;;;22.50;99.90;;;;;;6216920;23;20203;-72
2023/05/05 07:59:19;;;;;;;1.73;1.63;;;23.10;80.80;;;;;;6217064;23;20510;-72
2023/05/05 10:11:15;;;;;;;0.90;0.90;;;21.60;76.60;;;;;;6216235;22;20196;-72
2023/05/05 10:13:42;;;;;;;0.90;0.90;;;21.70;75.50;;;;;;6218014;23;20203;-72
2023/05/05 10:16:12;;;;;;;0.80;0.73;;;21.70;74.80;;;;;;6222095;23;20215;-72
2023/05/05 10:18:43;;;;;;;1.13;1.13;;;21.90;71.60;;;;;;6222687;23;20637;-71
2023/05/05 10:21:13;;;;;;;2.05;0.95;;;22.00;66.30;;;;;;6220479;23;20215;-71
2023/05/05 10:23:46;;;;;;;1.38;1.27;;;22.10;66.50;;;;;;6221035;23;20289;-71
2023/05/05 10:26:16;;;;;;;1.10;1.10;;;22.20;61.90;;;;;;6217581;22;20200;-72
2023/05/05 10:28:45;;;;;;;1.13;1.10;;;22.00;60.60;;;;;;6218514;23;20156;-73
2023/05/05 10:31:18;;;;;;;2.08;1.30;;;22.00;58.30;;;;;;6218594;23;20202;-72
2023/05/05 10:33:52;;;;;;;1.60;0.85;;;21.80;57.70;;;;;;6218282;23;20164;-72
2023/05/05 10:36:20;;;;;;;1.00;1.00;;;21.70;58.80;;;;;;6217789;23;20195;-73
2023/05/05 10:38:48;;;;;;;1.10;1.10;;;21.60;59.00;;;;;;6218145;23;20176;-72
2023/05/05 10:41:19;;;;;;;1.00;1.00;;;21.70;59.80;;;;;;6218008;23;20173;-73
2023/05/05 10:43:46;;;;;;;1.13;1.13;;;21.70;62.10;;;;;;6218197;23;20157;-71
2023/05/05 10:46:13;;;;;;;0.82;0.82;;;21.90;63.20;;;;;;6218164;23;20189;-71
2023/05/05 10:48:46;;;;;;;1.00;1.00;;;22.00;62.70;;;;;;6218273;23;20183;-71
2023/05/05 10:51:25;;;;;;;1.30;1.30;;;22.10;59.40;;;;;;6219791;23;20656;-71
2023/05/05 10:53:58;;;;;;;1.13;1.10;;;22.10;59.40;;;;;;6221841;23;20157;-72
2023/05/05 10:56:31;;;;;;;1.15;1.15;;;22.20;60.90;;;;;;6221296;23;20223;-72
2023/05/05 10:58:58;;;;;;;1.20;1.20;;;22.40;60.80;;;;;;6222910;23;20196;-73
2023/05/05 11:01:30;;;;;;;1.00;1.00;;;22.50;58.00;;;;;;6223481;23;20199;-73
2023/05/05 11:04:16;;;;;;;0.95;0.95;;;22.70;59.50;;;;;;6217895;23;20207;-72
2023/05/05 11:07:21;;;;;;;1.00;1.00;;;22.90;57.20;;;;;;6217551;23;20227;-71
2023/05/05 11:09:55;;;;;;;1.15;1.15;;;23.10;56.00;;;;;;6217588;23;20157;-72
2023/05/05 11:12:23;;;;;;;1.13;0.90;;;23.20;52.80;;;;;;6217578;23;20182;-72
2023/05/05 11:15:36;;;;;;;1.30;1.23;;;23.10;53.00;;;;;;6217387;23;20188;-72
2023/05/05 11:18:03;;;;;;;1.00;1.00;;;23.10;52.40;;;;;;6217625;23;20179;-73
2023/05/05 11:21:02;;;;;;;1.00;1.00;;;23.10;53.40;;;;;;6216976;23;20634;-72
2023/05/05 11:23:29;;;;;;;1.17;1.10;;;23.10;53.00;;;;;;6217615;23;20207;-72
2023/05/05 11:25:57;;;;;;;1.65;1.20;;;23.20;52.80;;;;;;6216928;23;20699;-72
2023/05/05 11:28:28;;;;;;;1.45;1.33;;;23.10;53.10;;;;;;6217055;23;20203;-72
2023/05/05 11:31:22;;;;;;;1.20;1.20;;;23.00;52.90;;;;;;6217628;23;20210;-72
2023/05/05 11:33:49;;;;;;;1.00;1.00;;;23.00;54.70;;;;;;6164113;23;20176;-72
2023/05/05 11:36:17;;;;;;;1.25;1.25;;;23.10;55.00;;;;;;6217168;23;20199;-72
2023/05/05 11:38:56;;;;;;;2.03;0.93;;;23.20;54.60;;;;;;6217621;23;20265;-73
2023/05/05 11:41:35;;;;;;;1.00;1.00;;;23.40;54.40;;;;;;6217431;23;20156;-72
2023/05/05 11:44:10;;;;;;;1.15;0.85;;;23.40;51.80;;;;;;6217411;23;20598;-72
2023/05/05 11:46:37;;;;;;;1.10;1.10;;;23.40;53.10;;;;;;6218130;23;20192;-72
2023/05/05 11:49:04;;;;;;;1.15;1.15;;;23.50;52.00;;;;;;6218346;23;20180;-72
2023/05/05 11:51:31;;;;;;;1.83;1.00;;;23.50;51.40;;;;;;6218599;23;20176;-72
2023/05/05 11:53:58;;;;;;;1.25;1.20;;;23.40;51.00;;;;;;6218251;23;20176;-72
2023/05/05 11:56:25;;;;;;;1.40;1.20;;;23.20;49.80;;;;;;6217934;23;20192;-72
2023/05/05 11:59:08;;;;;;;1.27;1.27;;;23.10;52.10;;;;;;6217855;23;20660;-72
2023/05/05 12:01:39;;;;;;;1.25;1.25;;;23.20;51.80;;;;;;6217633;23;20162;-72
2023/05/05 12:04:06;;;;;;;0.95;0.95;;;23.30;50.80;;;;;;6219622;23;20466;-72
2023/05/05 12:06:33;;;;;;;1.50;1.40;;;23.50;51.70;;;;;;6218236;23;20192;-72
2023/05/05 12:09:00;;;;;;;1.52;1.42;;;23.60;51.90;;;;;;6218151;23;20179;-72
2023/05/05 12:11:27;;;;;;;1.00;1.00;;;23.60;51.00;;;;;;6218988;23;20199;-71
2023/05/05 12:14:08;;;;;;;1.00;1.00;;;23.70;51.50;;;;;;6218340;23;20176;-72
2023/05/05 12:16:36;;;;;;;1.15;1.15;;;23.90;50.30;;;;;;6217918;23;20196;-72
2023/05/05 12:19:04;;;;;;;1.00;1.00;;;24.00;46.60;;;;;;6217738;23;20222;-73
2023/05/05 12:21:31;;;;;;;0.90;0.90;;;24.00;48.10;;;;;;6217394;23;20208;-73
2023/05/05 12:23:58;;;;;;;1.10;1.10;;;24.10;46.40;;;;;;6217509;23;20182;-73
2023/05/05 12:26:26;;;;;;;1.00;1.00;;;24.10;46.00;;;;;;6217138;23;20203;-73
2023/05/05 12:28:53;;;;;;;0.82;0.82;;;24.00;47.00;;;;;;6217061;23;20176;-73
2023/05/05 12:31:20;;;;;;;1.00;1.00;;;23.90;46.80;;;;;;6216999;23;20180;-73
2023/05/05 12:33:48;;;;;;;0.88;0.88;;;23.80;46.80;;;;;;6217209;23;20173;-73
2023/05/05 12:36:15;;;;;;;1.38;1.10;;;23.70;49.00;;;;;;6217394;23;20223;-72
2023/05/05 12:38:42;;;;;;;0.82;0.82;;;23.50;48.30;;;;;;6218526;23;20179;-72
2023/05/05 12:41:09;;;;;;;1.20;1.10;;;23.40;50.00;;;;;;6217915;23;20637;-72
2023/05/05 12:43:37;;;;;;;1.00;1.00;;;23.30;50.90;;;;;;6218558;23;20263;-73
2023/05/05 12:46:06;;;;;;;1.00;1.00;;;23.20;52.90;;;;;;6218113;23;20192;-74
2023/05/05 12:48:34;;;;;;;0.90;0.90;;;23.20;51.80;;;;;;6217326;23;20172;-74
2023/05/05 12:51:13;;;;;;;1.17;0.95;;;23.20;52.50;;;;;;6216331;23;20183;-74
2023/05/05 12:53:40;;;;;;;1.23;1.23;;;23.10;52.10;;;;;;6217078;23;20207;-75
2023/05/05 12:56:28;;;;;;;2.28;1.00;;;23.20;51.90;;;;;;6217304;23;20200;-75
2023/05/05 12:58:55;;;;;;;1.58;1.48;;;23.30;51.70;;;;;;6217458;23;20157;-75
2023/05/05 13:01:21;;;;;;;2.75;1.30;;;23.40;49.90;;;;;;6217417;23;20211;-75
2023/05/05 13:04:18;;;;;;;3.15;1.20;;;23.30;46.50;;;;;;6217123;23;20172;-75
2023/05/05 13:06:48;;;;;;;1.48;1.08;;;23.30;47.60;;;;;;6217505;23;20194;-75
2023/05/05 13:09:32;;;;;;;1.05;1.05;;;23.40;47.80;;;;;;6217756;23;20172;-75
2023/05/05 13:12:01;;;;;;;0.90;0.90;;;23.40;44.90;;;;;;6218040;23;20160;-73
2023/05/05 13:14:29;;;;;;;1.35;1.08;;;23.40;44.00;;;;;;6217088;23;20211;-73
2023/05/05 13:16:56;;;;;;;2.15;1.00;;;23.30;42.40;;;;;;6217125;23;20278;-74
2023/05/05 13:19:23;;;;;;;0.73;0.73;;;23.30;39.90;;;;;;6216170;23;20634;-75
2023/05/05 13:21:51;;;;;;;1.30;1.20;;;23.30;39.90;;;;;;6216385;23;20622;-73
2023/05/05 13:24:18;;;;;;;0.85;0.85;;;23.20;39.30;;;;;;6216885;23;20173;-73
2023/05/05 13:26:45;;;;;;;0.90;0.90;;;23.20;40.90;;;;;;6216093;23;20529;-74
2023/05/05 13:29:12;;;;;;;0.80;0.80;;;23.20;41.60;;;;;;6217601;23;20231;-73
2023/05/05 13:31:38;;;;;;;0.93;0.90;;;23.10;39.70;;;;;;6218246;23;20176;-73
2023/05/05 13:34:05;;;;;;;0.82;0.82;;;23.10;39.80;;;;;;6217511;23;20176;-73
2023/05/05 13:36:32;;;;;;;0.90;0.90;;;23.20;41.80;;;;;;6215810;23;20565;-71
2023/05/05 13:39:00;;;;;;;0.73;0.73;;;23.30;41.90;;;;;;6216519;23;20176;-73
2023/05/05 13:41:26;;;;;;;0.93;0.93;;;23.40;42.80;;;;;;6216929;23;20176;-72
2023/05/05 13:43:53;;;;;;;1.35;1.30;;;23.40;41.20;;;;;;6216898;23;20172;-72
2023/05/05 13:46:20;;;;;;;1.10;1.10;;;23.20;41.30;;;;;;6216426;23;20191;-73
2023/05/05 13:48:47;;;;;;;1.42;1.42;;;23.20;43.00;;;;;;6216808;23;20172;-74
2023/05/05 13:51:14;;;;;;;1.38;1.35;;;23.10;42.90;;;;;;6216515;23;20176;-73
2023/05/05 13:53:42;;;;;;;1.35;1.25;;;23.20;43.70;;;;;;6216500;23;20258;-73
2023/05/05 13:56:11;;;;;;;1.20;1.10;;;23.40;44.60;;;;;;6216499;23;20199;-73
2023/05/05 13:58:37;;;;;;;1.48;1.10;;;23.50;44.50;;;;;;6216580;23;20235;-72
2023/05/05 14:01:04;;;;;;;2.70;1.48;;;23.60;43.50;;;;;;6215990;23;20633;-74
2023/05/05 14:03:31;;;;;;;2.20;1.58;;;23.40;43.20;;;;;;6217752;23;20172;-72
2023/05/05 14:05:57;;;;;;;1.88;1.25;;;23.20;44.70;;;;;;6216304;23;20200;-72
2023/05/05 14:08:24;;;;;;;1.85;1.30;;;23.00;46.20;;;;;;6215617;23;20544;-70
2023/05/05 14:10:51;;;;;;;1.42;1.33;;;23.00;45.70;;;;;;6216055;23;20179;-72
2023/05/05 14:13:19;;;;;;;1.70;1.60;;;22.90;44.60;;;;;;6216300;23;20183;-72
2023/05/05 14:15:46;;;;;;;1.77;1.50;;;22.80;45.10;;;;;;6215832;23;20196;-73
2023/05/05 14:18:12;;;;;;;2.72;1.98;;;22.80;47.30;;;;;;6216252;23;20223;-74
2023/05/05 14:20:39;;;;;;;1.90;1.80;;;22.80;47.40;;;;;;6215997;23;20177;-73
2023/05/05 14:23:06;;;;;;;2.17;2.08;;;22.70;48.90;;;;;;6215750;23;20176;-73
2023/05/05 14:25:32;;;;;;;1.50;1.40;;;22.70;50.90;;;;;;6215841;23;20204;-73
2023/05/05 14:27:59;;;;;;;1.50;1.50;;;22.60;48.30;;;;;;6215945;23;20206;-72
2023/05/05 14:30:27;;;;;;;2.10;1.98;;;22.50;47.30;;;;;;6215501;23;20652;-72
2023/05/05 14:32:54;;;;;;;2.03;1.92;;;22.40;49.50;;;;;;6215786;23;20547;-73
2023/05/05 14:35:20;;;;;;;2.20;2.10;;;22.20;48.10;;;;;;6215752;23;20196;-73
2023/05/05 14:37:47;;;;;;;2.80;2.20;;;22.00;48.90;;;;;;6215332;23;20497;-73
2023/05/05 14:40:14;;;;;;;2.40;2.28;;;21.90;50.70;;;;;;6215754;23;20176;-73
2023/05/05 14:42:40;;;;;;;2.50;2.30;;;21.90;51.70;;;;;;6215443;23;20709;-73
2023/05/05 14:45:09;;;;;;;1.85;1.70;;;21.90;52.50;;;;;;6215645;23;20575;-73
2023/05/05 14:47:37;;;;;;;2.00;1.90;;;21.90;53.50;;;;;;6215852;23;20226;-73
2023/05/05 14:50:08;;;;;;;1.70;1.70;;;22.00;54.60;;;;;;6215846;23;20195;-71
2023/05/05 14:52:35;;;;;;;1.52;1.48;;;22.00;54.70;;;;;;6215794;23;20168;-73
2023/05/05 14:55:02;;;;;;;1.60;1.55;;;22.00;55.70;;;;;;6215816;23;20238;-73
2023/05/05 14:57:30;;;;;;;1.60;1.52;;;21.90;56.10;;;;;;6215960;23;20645;-73
2023/05/05 14:59:56;;;;;;;1.60;1.52;;;21.80;55.20;;;;;;6216062;23;20195;-73
2023/05/05 15:02:23;;;;;;;1.70;1.60;;;21.70;55.80;;;;;;6215884;23;20176;-73
2023/05/05 15:04:51;;;;;;;1.52;1.42;;;21.60;56.40;;;;;;6216113;23;20180;-74
2023/05/05 15:07:19;;;;;;;1.42;1.38;;;21.40;57.10;;;;;;6215460;23;20642;-72
2023/05/05 15:09:45;;;;;;;1.30;1.30;;;21.30;58.50;;;;;;6215795;23;20680;-75
2023/05/05 15:12:12;;;;;;;1.20;1.20;;;21.30;58.90;;;;;;6216094;23;20176;-74
2023/05/05 15:14:39;;;;;;;1.30;1.30;;;21.20;58.60;;;;;;6217889;23;20179;-74
2023/05/05 15:17:06;;;;;;;1.50;1.50;;;21.10;59.60;;;;;;6217734;23;20278;-73
2023/05/05 15:19:33;;;;;;;1.90;1.80;;;20.90;59.70;;;;;;6217536;23;20183;-73
2023/05/05 15:22:01;;;;;;;1.48;1.48;;;20.80;62.10;;;;;;6217510;23;20176;-73
2023/05/05 15:24:27;;;;;;;1.38;1.38;;;20.60;63.70;;;;;;6217370;23;20505;-73
2023/05/05 15:26:54;;;;;;;1.60;1.60;;;20.50;70.50;;;;;;6217085;23;20196;-73
2023/05/05 15:29:21;;;;;;;1.63;1.52;;;20.40;76.40;;;;;;6217655;23;20183;-73
2023/05/05 15:31:47;;;;;;;1.63;1.52;;;20.20;85.10;;;;;;6217511;23;20204;-73
2023/05/05 15:34:14;;;;;;;1.52;1.50;;;20.10;92.80;;;;;;6217478;23;20180;-72
2023/05/05 15:36:41;;;;;;;1.42;1.42;;;20.00;95.30;;;;;;6217432;23;20192;-72
2023/05/05 15:39:09;;;;;;;1.30;1.30;;;19.90;99.90;;;;;;6217416;23;20180;-73
2023/05/05 15:41:36;;;;;;;1.55;1.50;;;19.80;99.90;;;;;;6217342;23;20179;-74
2023/05/05 15:44:03;;;;;;;2.03;1.92;;;19.60;99.90;;;;;;6217227;23;20180;-73
2023/05/05 15:46:32;;;;;;;2.38;2.17;;;19.40;99.90;;;;;;6217144;23;20199;-73
2023/05/05 15:48:59;;;;;;;3.80;2.30;;;19.20;99.90;;;;;;6217249;23;20204;-73
2023/05/05 15:51:26;;;;;;;3.42;1.92;;;18.70;99.90;;;;;;6216843;23;20672;-73
2023/05/05 15:53:52;;;;;;;1.45;1.17;;;18.10;99.90;;;;;;6217303;23;20176;-73
2023/05/05 15:56:21;;;;;;;1.60;1.55;;;17.40;99.90;;;;;;6216995;23;20196;-74
2023/05/05 15:58:48;;;;;;;2.60;1.83;;;16.90;99.90;;;;;;6216905;23;20175;-73
2023/05/05 16:01:15;;;;;;;2.95;1.08;;;16.40;99.90;;;;;;6216963;23;20183;-73
2023/05/05 16:03:41;;;;;;;1.45;0.93;;;16.00;99.90;;;;;;6217093;23;20230;-73
2023/05/05 16:06:10;;;;;;;1.30;1.25;;;15.70;99.90;;;;;;6216709;23;20653;-74
2023/05/05 16:08:37;;;;;;;1.80;1.00;;;15.50;99.90;;;;;;6217188;23;20179;-74
2023/05/05 16:11:04;;;;;;;1.17;1.17;;;15.30;99.90;;;;;;6217449;23;20157;-74
2023/05/05 16:13:32;;;;;;;1.60;1.33;;;15.20;99.90;;;;;;6217762;23;20172;-75
2023/05/05 16:15:59;;;;;;;2.55;1.23;;;14.90;99.90;;;;;;6217350;23;20216;-75
2023/05/05 16:18:25;;;;;;;0.80;0.80;;;14.80;99.90;;;;;;6217574;23;20196;-75
2023/05/05 16:20:52;;;;;;;1.13;1.08;;;14.70;99.90;;;;;;6217567;23;20192;-75
2023/05/05 16:23:19;;;;;;;0.90;0.90;;;14.70;99.90;;;;;;6217933;23;20172;-73
2023/05/05 16:25:45;;;;;;;0.90;0.90;;;14.60;99.90;;;;;;6216789;23;20205;-73
2023/05/05 16:28:12;;;;;;;0.85;0.85;;;14.60;99.90;;;;;;6217616;23;20187;-73
2023/05/05 16:30:41;;;;;;;1.10;1.10;;;14.60;99.90;;;;;;6217414;23;20637;-73
2023/05/05 16:33:08;;;;;;;0.77;0.77;;;14.60;99.90;;;;;;6217317;23;20208;-73
2023/05/05 16:35:35;;;;;;;0.80;0.80;;;14.60;99.90;;;;;;6217394;23;20239;-72
2023/05/05 16:38:02;;;;;;;0.88;0.88;;;14.60;99.90;;;;;;6217007;23;20582;-72
2023/05/05 16:40:29;;;;;;;0.70;0.70;;;14.70;99.90;;;;;;6217336;23;20180;-73
2023/05/05 16:42:55;;;;;;;0.80;0.80;;;14.60;99.90;;;;;;6218047;23;20180;-73
2023/05/05 16:45:23;;;;;;;0.93;0.65;;;14.70;99.90;;;;;;6217804;23;20203;-73
2023/05/05 16:47:51;;;;;;;3.03;0.80;;;14.60;99.90;;;;;;6217498;23;20227;-73
2023/05/05 16:50:18;;;;;;;0.80;0.80;;;14.60;99.90;;;;;;6217442;23;20180;-72
2023/05/05 16:52:44;;;;;;;0.70;0.70;;;14.60;99.90;;;;;;6217443;23;20478;-73
2023/05/05 16:55:11;;;;;;;2.40;0.80;;;14.70;99.90;;;;;;6217916;23;20199;-73
2023/05/05 16:57:38;;;;;;;1.08;1.00;;;14.70;99.90;;;;;;6217633;23;20196;-72
2023/05/05 17:00:06;;;;;;;0.80;0.80;;;14.70;99.90;;;;;;6217438;23;20637;-73
2023/05/05 17:02:34;;;;;;;0.90;0.90;;;14.70;99.90;;;;;;6217469;23;20177;-72
2023/05/05 17:05:02;;;;;;;1.25;0.70;;;14.70;99.90;;;;;;6217048;23;20184;-72
2023/05/05 17:07:28;;;;;;;1.45;1.10;;;14.80;99.90;;;;;;6217555;23;20169;-73
2023/05/05 17:09:55;;;;;;;0.80;0.80;;;14.80;99.90;;;;;;6217544;23;20180;-73
2023/05/05 17:12:22;;;;;;;0.88;0.88;;;14.90;99.90;;;;;;6217606;23;20177;-73
2023/05/05 17:14:49;;;;;;;0.88;0.88;;;15.00;99.90;;;;;;6217489;23;20179;-72
2023/05/05 17:17:15;;;;;;;1.10;1.00;;;15.10;99.90;;;;;;6217154;23;20188;-72
2023/05/05 17:19:43;;;;;;;0.90;0.90;;;15.10;99.90;;;;;;6217541;23;20176;-72
2023/05/05 17:22:12;;;;;;;0.93;0.90;;;15.10;99.90;;;;;;6216939;23;20200;-72
2023/05/05 17:24:38;;;;;;;0.63;0.60;;;15.10;99.90;;;;;;6216648;23;20661;-74
2023/05/05 17:27:05;;;;;;;0.70;0.70;;;15.10;99.90;;;;;;6216757;23;20197;-74
2023/05/05 17:29:35;;;;;;;0.70;0.70;;;15.10;99.90;;;;;;6217100;23;20173;-72
2023/05/05 17:32:06;;;;;;;0.90;0.88;;;15.10;99.90;;;;;;6216848;23;20161;-72
2023/05/05 17:34:33;;;;;;;0.60;0.60;;;15.10;99.90;;;;;;6216959;23;20249;-72
2023/05/05 17:37:01;;;;;;;0.73;0.73;;;15.10;99.90;;;;;;6216331;23;20542;-72
2023/05/05 17:39:30;;;;;;;0.70;0.70;;;15.10;99.90;;;;;;6216155;23;20177;-72
2023/05/05 17:41:56;;;;;;;1.00;0.85;;;15.10;99.90;;;;;;6216813;23;20157;-72
2023/05/05 17:44:23;;;;;;;0.90;0.90;;;15.10;99.90;;;;;;6217344;23;20173;-72
2023/05/05 17:46:50;;;;;;;0.82;0.82;;;15.10;99.90;;;;;;6216701;23;20197;-72
2023/05/05 17:49:17;;;;;;;0.63;0.63;;;15.10;99.90;;;;;;6216874;23;20172;-72
2023/05/05 17:51:44;;;;;;;0.90;0.90;;;15.00;99.90;;;;;;6216775;23;20168;-72
2023/05/05 17:54:11;;;;;;;0.75;0.75;;;14.90;99.90;;;;;;6216527;23;20500;-72
2023/05/05 17:56:39;;;;;;;0.80;0.80;;;14.80;99.90;;;;;;6216632;23;20530;-73
2023/05/05 17:59:06;;;;;;;0.80;0.80;;;14.80;99.90;;;;;;6216354;23;20505;-73
2023/05/05 18:01:32;;;;;;;1.98;0.70;;;14.70;99.90;;;;;;6216940;23;20212;-73
2023/05/05 18:03:59;;;;;;;0.70;0.70;;;14.60;99.90;;;;;;6216605;23;20165;-73
2023/05/05 18:06:26;;;;;;;0.80;0.80;;;14.50;99.90;;;;;;6216885;23;20207;-73
2023/05/05 18:08:53;;;;;;;1.38;0.85;;;14.40;99.90;;;;;;6216912;23;20169;-74
2023/05/05 18:11:25;;;;;;;1.10;1.10;;;14.30;99.90;;;;;;6216657;23;20232;-72
2023/05/05 18:13:54;;;;;;;1.20;1.20;;;14.30;99.90;;;;;;6216976;23;20157;-72
2023/05/05 18:16:21;;;;;;;1.10;1.10;;;14.20;99.90;;;;;;6216537;23;20224;-72
2023/05/05 18:18:47;;;;;;;1.00;1.00;;;14.20;99.90;;;;;;6216214;23;20188;-72
2023/05/05 18:21:14;;;;;;;1.02;1.02;;;14.20;99.90;;;;;;6216096;23;20641;-72
2023/05/05 18:23:44;;;;;;;0.88;0.88;;;14.10;99.90;;;;;;6216755;23;20172;-71
2023/05/05 18:26:11;;;;;;;1.00;1.00;;;14.10;99.90;;;;;;6216374;23;20200;-72
2023/05/05 18:28:38;;;;;;;1.10;1.10;;;14.00;99.90;;;;;;6216747;23;20180;-72
2023/05/05 18:31:06;;;;;;;1.00;1.00;;;14.00;99.90;;;;;;6216213;23;20669;-74
2023/05/05 18:33:33;;;;;;;1.20;1.10;;;13.90;99.90;;;;;;6216303;23;20631;-71
2023/05/05 18:36:02;;;;;;;0.73;0.73;;;13.90;99.90;;;;;;6216015;23;20564;-71
2023/05/05 18:38:29;;;;;;;1.10;1.10;;;13.90;99.90;;;;;;6216130;23;20662;-72
2023/05/05 18:40:55;;;;;;;1.00;1.00;;;13.80;99.90;;;;;;6216471;23;20177;-72
2023/05/05 18:43:22;;;;;;;1.00;0.93;;;13.80;99.90;;;;;;6216671;23;20180;-77
2023/05/05 18:45:50;;;;;;;0.93;0.93;;;13.70;99.90;;;;;;6216493;23;20204;-76
2023/05/05 18:48:18;;;;;;;0.80;0.80;;;13.60;99.90;;;;;;6217885;23;20196;-75
2023/05/05 18:50:46;;;;;;;1.00;1.00;;;13.60;99.90;;;;;;6218475;23;20173;-76
2023/05/05 18:53:13;;;;;;;1.10;1.10;;;13.60;99.90;;;;;;6219731;23;20246;-77
2023/05/05 18:55:41;;;;;;;0.70;0.70;;;13.50;99.90;;;;;;6218870;23;20193;-77
2023/05/05 18:58:08;;;;;;;0.90;0.90;;;13.50;99.90;;;;;;6219073;23;20275;-76
2023/05/05 19:00:36;;;;;;;0.73;0.73;;;13.50;99.90;;;;;;6218680;23;20183;-76
2023/05/05 19:03:02;;;;;;;0.77;0.77;;;13.50;99.90;;;;;;6218236;23;20196;-76
2023/05/05 19:05:30;;;;;;;0.80;0.80;;;13.50;99.90;;;;;;6218287;23;20203;-74
2023/05/05 19:07:57;;;;;;;0.75;0.75;;;13.50;99.90;;;;;;6218198;23;20172;-72